createdAt,value
2022-12-19T00:01:32.944Z,101954.31
2022-12-19T00:04:02.248Z,101950.93
2022-12-19T00:06:33.966Z,101954.33
2022-12-19T00:09:00.368Z,101951.12
2022-12-19T00:11:27.844Z,101952.27
2022-12-19T00:13:54.658Z,101955.42
2022-12-19T00:16:23.408Z,101950.70
2022-12-19T00:18:55.201Z,101950.42
2022-12-19T00:21:24.032Z,101949.33
2022-12-19T00:23:51.127Z,101950.30
2022-12-19T00:26:25.679Z,101945.50
2022-12-19T00:28:54.823Z,101940.19
2022-12-19T00:31:25.781Z,101936.60
2022-12-19T00:33:52.892Z,101935.79
2022-12-19T00:36:22.732Z,101930.68
2022-12-19T00:38:50.791Z,101932.67
2022-12-19T00:41:19.255Z,101932.82
2022-12-19T00:43:46.193Z,101926.77
2022-12-19T00:46:14.792Z,101927.16
2022-12-19T00:48:41.958Z,101929.96
2022-12-19T00:51:13.839Z,101934.14
2022-12-19T00:53:42.764Z,101939.70
2022-12-19T00:56:14.773Z,101935.39
2022-12-19T00:58:46.643Z,101936.83
2022-12-19T01:01:16.325Z,101932.83
2022-12-19T01:04:04.473Z,101925.36
2022-12-19T01:06:31.513Z,101922.89
2022-12-19T01:08:58.284Z,101920.80
2022-12-19T01:11:47.776Z,101919.77
2022-12-19T01:14:20.804Z,101913.72
2022-12-19T01:16:50.086Z,101906.77
2022-12-19T01:19:18.938Z,101902.88
2022-12-19T01:21:45.708Z,101898.98
2022-12-19T01:24:12.253Z,101884.89
2022-12-19T01:26:39.955Z,101882.27
2022-12-19T01:29:06.452Z,101877.43
2022-12-19T01:31:32.976Z,101875.80
2022-12-19T01:34:02.174Z,101874.80
2022-12-19T01:36:28.589Z,101870.56
2022-12-19T01:38:56.609Z,101860.97
2022-12-19T01:41:23.257Z,101837.63
2022-12-19T01:44:12.901Z,101829.89
2022-12-19T01:46:47.578Z,101823.02
2022-12-19T01:49:34.741Z,101823.91
2022-12-19T01:52:09.686Z,101820.59
2022-12-19T01:54:40.559Z,101818.47
2022-12-19T01:57:12.473Z,101805.80
2022-12-19T01:59:43.256Z,101804.55
2022-12-19T02:02:17.191Z,101802.64
2022-12-19T02:04:45.248Z,101801.77
2022-12-19T02:07:16.080Z,101795.50
2022-12-19T02:09:45.036Z,101797.71
2022-12-19T02:12:12.978Z,101786.64
2022-12-19T02:14:40.382Z,101785.42
2022-12-19T02:17:18.375Z,101785.73
2022-12-19T02:20:12.328Z,101784.08
2022-12-19T02:23:00.360Z,101777.41
2022-12-19T02:25:56.789Z,101777.95
2022-12-19T02:28:57.013Z,101774.67
2022-12-19T02:31:30.865Z,101775.35
2022-12-19T02:34:13.897Z,101775.14
2022-12-19T02:37:00.212Z,101774.30
2022-12-19T02:39:40.369Z,101766.40
2022-12-19T02:42:09.355Z,101760.40
2022-12-19T02:44:42.056Z,101754.37
2022-12-19T02:47:09.238Z,101750.23
2022-12-19T02:49:37.586Z,101743.34
2022-12-19T02:52:19.202Z,101730.07
2022-12-19T02:54:56.845Z,101728.05
2022-12-19T02:57:31.719Z,101731.61
2022-12-19T03:00:10.928Z,101727.73
2022-12-19T03:03:10.414Z,101722.37
2022-12-19T03:06:13.589Z,101725.29
2022-12-19T03:08:59.609Z,101719.16
2022-12-19T03:11:31.322Z,101716.07
2022-12-19T03:14:06.689Z,101708.65
2022-12-19T03:16:36.864Z,101698.30
2022-12-19T03:19:09.248Z,101701.16
2022-12-19T03:21:42.117Z,101696.04
2022-12-19T03:24:10.805Z,101695.02
2022-12-19T03:26:49.914Z,101696.39
2022-12-19T03:29:36.918Z,101690.17
2022-12-19T03:32:07.124Z,101690.67
2022-12-19T03:34:44.632Z,101693.30
2022-12-19T03:37:14.830Z,101686.83
2022-12-19T03:39:42.828Z,101682.83
2022-12-19T03:42:28.530Z,101680.41
2022-12-19T03:45:00.186Z,101675.32
2022-12-19T03:47:39.168Z,101675.20
2022-12-19T03:50:06.458Z,101675.85
2022-12-19T03:52:46.506Z,101675.20
2022-12-19T03:55:26.505Z,101665.96
2022-12-19T03:57:59.525Z,101662.46
2022-12-19T04:00:26.800Z,101667.14
2022-12-19T04:02:55.705Z,101671.15
2022-12-19T04:05:24.704Z,101671.84
2022-12-19T04:07:54.262Z,101673.05
2022-12-19T04:10:23.133Z,101670.92
2022-12-19T04:13:13.084Z,101672.20
2022-12-19T04:15:48.297Z,101666.11
2022-12-19T04:18:15.400Z,101664.66
2022-12-19T04:20:45.245Z,101660.90
2022-12-19T04:23:18.221Z,101655.89
2022-12-19T04:25:50.748Z,101663.66
2022-12-19T04:28:25.877Z,101661.59
2022-12-19T04:30:53.407Z,101657.05
2022-12-19T04:33:19.847Z,101654.75
2022-12-19T04:35:46.266Z,101656.82
2022-12-19T04:38:12.786Z,101658.05
2022-12-19T04:40:41.463Z,101654.70
2022-12-19T04:43:08.561Z,101654.44
2022-12-19T04:45:35.093Z,101650.20
2022-12-19T04:48:03.230Z,101649.55
2022-12-19T04:50:29.633Z,101647.96
2022-12-19T04:52:57.420Z,101644.44
2022-12-19T04:55:23.759Z,101639.27
2022-12-19T04:57:50.232Z,101640.98
2022-12-19T05:00:16.965Z,101638.76
2022-12-19T05:02:43.909Z,101637.62
2022-12-19T05:05:10.517Z,101636.05
2022-12-19T05:07:36.865Z,101639.91
2022-12-19T05:10:04.047Z,101642.70
2022-12-19T05:12:30.548Z,101642.77
2022-12-19T05:14:57.068Z,101644.50
2022-12-19T05:17:23.631Z,101646.31
2022-12-19T05:19:50.107Z,101641.75
2022-12-19T05:22:16.683Z,101640.83
2022-12-19T05:24:43.103Z,101641.95
2022-12-19T05:27:09.577Z,101635.13
2022-12-19T05:29:35.947Z,101645.64
2022-12-19T05:32:02.274Z,101636.11
2022-12-19T05:34:28.796Z,101633.81
2022-12-19T05:36:55.398Z,101630.45
2022-12-19T05:39:21.823Z,101626.48
2022-12-19T05:41:49.307Z,101625.55
2022-12-19T05:44:16.150Z,101626.35
2022-12-19T05:46:42.595Z,101623.05
2022-12-19T05:49:09.030Z,101619.91
2022-12-19T05:51:35.587Z,101611.45
2022-12-19T05:54:02.343Z,101602.78
2022-12-19T05:56:28.679Z,101606.22
2022-12-19T05:58:55.290Z,101605.97
2022-12-19T06:01:24.328Z,101607.88
2022-12-19T06:03:51.369Z,101607.97
2022-12-19T06:06:20.074Z,101610.48
2022-12-19T06:08:47.011Z,101616.17
2022-12-19T06:11:14.049Z,101621.96
2022-12-19T06:13:41.069Z,101627.73
2022-12-19T06:16:12.164Z,101635.33
2022-12-19T06:18:44.260Z,101634.09
2022-12-19T06:21:16.250Z,101634.66
2022-12-19T06:23:43.121Z,101624.47
2022-12-19T06:26:18.316Z,101622.70
2022-12-19T06:28:45.893Z,101629.39
2022-12-19T06:31:12.774Z,101631.60
2022-12-19T06:33:39.423Z,101630.74
2022-12-19T06:36:27.031Z,101622.02
2022-12-19T06:38:55.269Z,101619.41
2022-12-19T06:41:40.528Z,101615.15
2022-12-19T06:44:09.901Z,101613.72
2022-12-19T06:46:38.350Z,101602.06
2022-12-19T06:49:05.179Z,101600.29
2022-12-19T06:51:32.057Z,101600.44
2022-12-19T06:53:58.715Z,101594.88
2022-12-19T06:56:25.599Z,101594.41
2022-12-19T06:58:52.125Z,101594.38
2022-12-19T07:01:21.324Z,101593.80
2022-12-19T07:03:48.381Z,101597.09
2022-12-19T07:06:14.852Z,101600.77
2022-12-19T07:08:41.489Z,101594.49
2022-12-19T07:11:07.997Z,101600.36
2022-12-19T07:13:34.457Z,101595.79
2022-12-19T07:16:02.632Z,101589.47
2022-12-19T07:18:30.801Z,101586.35
2022-12-19T07:20:57.484Z,101581.08
2022-12-19T07:23:23.891Z,101581.29
2022-12-19T07:25:50.260Z,101582.69
2022-12-19T07:28:16.729Z,101581.66
2022-12-19T07:30:43.075Z,101581.35
2022-12-19T07:33:11.257Z,101580.09
2022-12-19T07:35:39.254Z,101575.91
2022-12-19T07:38:07.695Z,101573.35
2022-12-19T07:40:35.076Z,101568.93
2022-12-19T07:43:02.521Z,101564.91
2022-12-19T07:45:29.601Z,101562.85
2022-12-19T07:48:00.513Z,101560.35
2022-12-19T07:50:27.516Z,101554.38
2022-12-19T07:52:54.471Z,101569.27
2022-12-19T07:55:20.898Z,101569.39
2022-12-19T07:57:47.373Z,101566.04
2022-12-19T08:00:14.709Z,101558.30
2022-12-19T08:02:41.331Z,101559.87
2022-12-19T08:05:08.795Z,101555.60
2022-12-19T08:07:35.141Z,101546.48
2022-12-19T08:10:01.524Z,101542.95
2022-12-19T08:12:28.142Z,101543.58
2022-12-19T08:14:57.338Z,101547.15
2022-12-19T08:17:24.076Z,101544.99
2022-12-19T08:19:50.604Z,101540.83
2022-12-19T08:22:17.117Z,101539.95
2022-12-19T08:24:43.675Z,101535.55
2022-12-19T08:27:10.195Z,101531.10
2022-12-19T08:29:36.538Z,101535.77
2022-12-19T08:32:03.001Z,101538.27
2022-12-19T08:34:29.411Z,101531.52
2022-12-19T08:36:56.343Z,101525.02
2022-12-19T08:39:22.683Z,101526.61
2022-12-19T08:41:49.192Z,101525.86
2022-12-19T08:44:15.710Z,101518.34
2022-12-19T08:46:48.080Z,101518.91
2022-12-19T08:49:16.424Z,101520.52
2022-12-19T08:51:43.050Z,101516.65
2022-12-19T08:54:11.741Z,101512.33
2022-12-19T08:56:38.775Z,101513.60
2022-12-19T08:59:21.241Z,101510.13
2022-12-19T09:01:58.570Z,101501.59
2022-12-19T09:05:34.321Z,101510.94
2022-12-19T09:07:15.749Z,101518.55
2022-12-19T09:09:48.107Z,101517.33
2022-12-19T09:12:16.192Z,101514.13
2022-12-19T09:14:43.591Z,101518.02
2022-12-19T09:17:10.127Z,101514.51
2022-12-19T09:19:36.724Z,101508.41
2022-12-19T09:22:03.873Z,101510.64
2022-12-19T09:24:30.239Z,101514.56
2022-12-19T09:26:56.643Z,101508.11
2022-12-19T09:29:24.132Z,101501.62
2022-12-19T09:31:55.622Z,101494.53
2022-12-19T09:34:37.402Z,101486.78
2022-12-19T09:37:06.824Z,101486.93
2022-12-19T09:39:34.386Z,101480.52
2022-12-19T09:42:20.677Z,101477.33
2022-12-19T09:45:11.211Z,101474.47
2022-12-19T09:47:43.316Z,101467.33
2022-12-19T09:50:29.041Z,101461.54
2022-12-19T09:53:12.522Z,101454.62
2022-12-19T09:55:40.901Z,101452.52
2022-12-19T09:58:24.023Z,101453.16
2022-12-19T10:00:59.939Z,101443.50
2022-12-19T10:03:40.876Z,101445.66
2022-12-19T10:07:13.392Z,101441.77
2022-12-19T10:10:40.103Z,101439.15
2022-12-19T10:12:45.273Z,101437.05
2022-12-19T10:15:25.293Z,101441.23
2022-12-19T10:18:08.421Z,101437.77
2022-12-19T10:20:41.209Z,101428.29
2022-12-19T10:23:55.994Z,101430.05
2022-12-19T10:26:29.830Z,101440.60
2022-12-19T10:29:25.191Z,101433.13
2022-12-19T10:32:03.605Z,101424.80
2022-12-19T10:34:41.073Z,101426.39
2022-12-19T10:37:29.085Z,101417.01
2022-12-19T10:40:27.744Z,101412.64
2022-12-19T10:42:59.436Z,101410.83
2022-12-19T10:45:48.916Z,101404.86
2022-12-19T10:48:18.303Z,101399.62
2022-12-19T10:50:46.633Z,101398.20
2022-12-19T10:53:13.920Z,101389.10
2022-12-19T10:55:43.779Z,101395.86
2022-12-19T10:58:24.792Z,101396.02
2022-12-19T11:01:04.543Z,101393.69
2022-12-19T11:03:34.792Z,101382.97
2022-12-19T11:06:02.781Z,101377.13
2022-12-19T11:08:34.544Z,101374.73
2022-12-19T11:12:28.998Z,101369.45
2022-12-19T11:19:33.471Z,101365.18
2022-12-19T11:21:47.738Z,101365.87
2022-12-19T11:29:26.509Z,101362.51
2022-12-19T11:29:33.928Z,101361.48
2022-12-19T11:30:37.983Z,101360.16
2022-12-19T11:30:47.108Z,101354.51
2022-12-19T11:34:02.564Z,101352.74
2022-12-19T11:36:47.135Z,101345.30
2022-12-19T11:39:31.587Z,101332.30
2022-12-19T11:42:23.963Z,101326.84
2022-12-19T11:44:58.446Z,101327.19
2022-12-19T11:47:44.530Z,101320.23
2022-12-19T11:50:16.263Z,101312.55
2022-12-19T11:53:05.119Z,101306.84
2022-12-19T12:35:34.425Z,101248.49
2022-12-19T12:58:55.482Z,101237.23
2022-12-19T13:01:41.854Z,101236.23
2022-12-19T13:04:36.098Z,101236.45
2022-12-19T13:09:06.987Z,101240.74
2022-12-19T13:12:46.846Z,101234.11
2022-12-19T13:15:39.883Z,101227.25
2022-12-19T13:18:35.817Z,101237.99
2022-12-19T13:21:09.706Z,101234.90
2022-12-19T13:26:50.206Z,101227.83
2022-12-19T13:29:30.473Z,101229.20
2022-12-19T13:35:32.592Z,101226.25
2022-12-19T13:39:54.908Z,101221.48
2022-12-19T13:41:47.908Z,101217.80
2022-12-19T13:44:22.141Z,101218.41
2022-12-19T13:46:51.434Z,101220.34
2022-12-19T13:49:50.052Z,101223.04
2022-12-19T13:52:28.221Z,101219.77
2022-12-19T13:55:15.641Z,101213.45
2022-12-19T13:57:52.859Z,101215.60
2022-12-19T14:00:53.556Z,101216.80
2022-12-19T14:03:53.152Z,101215.10
2022-12-19T14:06:26.408Z,101218.75
2022-12-19T14:11:24.294Z,101216.42
2022-12-19T14:13:45.276Z,101214.27
2022-12-19T14:15:25.523Z,101217.58
2022-12-19T14:17:53.824Z,101225.19
2022-12-19T14:22:03.527Z,101222.24
2022-12-19T14:23:13.492Z,101228.76
2022-12-19T14:28:17.824Z,101222.77
2022-12-19T14:28:48.984Z,101213.73
2022-12-19T14:31:22.808Z,101211.61
2022-12-19T14:34:19.124Z,101214.21
2022-12-19T14:37:54.335Z,101222.86
2022-12-19T14:40:23.191Z,101226.04
2022-12-19T14:43:59.928Z,101225.57
2022-12-19T14:54:00.767Z,101232.99
2022-12-19T14:54:07.010Z,101233.05
2022-12-19T14:54:23.584Z,101218.21
2022-12-19T14:56:15.900Z,101215.50
2022-12-19T14:58:52.325Z,101212.71
2022-12-19T15:01:28.792Z,101213.39
2022-12-19T15:04:52.515Z,101204.52
2022-12-19T15:07:06.728Z,101198.38
2022-12-19T15:10:59.501Z,101194.25
2022-12-19T15:14:46.785Z,101188.52
2022-12-19T15:16:42.627Z,101174.30
2022-12-19T15:19:13.878Z,101178.23
2022-12-19T15:21:42.834Z,101185.16
2022-12-19T15:24:14.106Z,101182.12
2022-12-19T15:26:54.463Z,101183.45
2022-12-19T15:29:24.507Z,101177.55
2022-12-19T15:31:57.629Z,101170.38
2022-12-19T15:34:44.392Z,101172.17
2022-12-19T15:37:18.076Z,101168.54
2022-12-19T15:39:46.663Z,101170.17
2022-12-19T15:42:24.666Z,101160.44
2022-12-19T15:44:57.534Z,101165.53
2022-12-19T15:54:08.962Z,101148.16
2022-12-19T15:56:47.638Z,101142.73
2022-12-19T15:59:32.986Z,101135.05
2022-12-19T16:02:13.884Z,101136.95
2022-12-19T16:04:41.916Z,101136.08
2022-12-19T16:07:30.330Z,101133.08
2022-12-19T16:09:58.102Z,101131.34
2022-12-19T16:12:37.222Z,101133.30
2022-12-19T16:15:07.288Z,101129.91
2022-12-19T16:17:34.995Z,101123.00
2022-12-19T16:20:02.792Z,101120.40
2022-12-19T16:22:30.615Z,101121.52
2022-12-19T16:24:58.319Z,101122.41
2022-12-19T16:27:30.708Z,101118.83
2022-12-19T16:30:16.609Z,101116.94
2022-12-19T16:32:47.228Z,101122.62
2022-12-19T16:35:34.236Z,101119.59
2022-12-19T16:38:05.381Z,101115.42
2022-12-19T16:40:33.189Z,101107.70
2022-12-19T16:43:31.446Z,101104.66
2022-12-19T16:46:01.416Z,101105.64
2022-12-19T16:48:30.362Z,101112.84
2022-12-19T16:50:59.292Z,101111.36
2022-12-19T16:53:27.147Z,101106.23
2022-12-19T16:55:56.800Z,101108.49
2022-12-19T16:58:26.602Z,101104.74
2022-12-19T17:00:55.507Z,101102.80
2022-12-19T17:03:41.594Z,101107.43
2022-12-19T17:06:14.997Z,101108.33
2022-12-19T17:08:43.040Z,101106.41
2022-12-19T17:11:31.092Z,101101.05
2022-12-19T17:14:10.183Z,101106.98
2022-12-19T17:16:38.323Z,101101.93
2022-12-19T17:19:06.122Z,101098.80
2022-12-19T17:21:33.901Z,101102.46
2022-12-19T17:24:01.636Z,101104.07
2022-12-19T17:26:29.370Z,101105.92
2022-12-19T17:28:57.087Z,101103.47
2022-12-19T17:31:28.739Z,101091.80
2022-12-19T17:33:58.095Z,101094.08
2022-12-19T17:36:32.778Z,101094.11
2022-12-19T17:39:02.869Z,101095.21
2022-12-19T17:41:30.704Z,101093.67
2022-12-19T17:43:58.473Z,101092.48
2022-12-19T17:46:36.644Z,101097.04
2022-12-19T17:49:05.241Z,101083.33
2022-12-19T17:51:33.035Z,101084.69
2022-12-19T17:54:00.805Z,101078.66
2022-12-19T17:56:29.570Z,101088.27
2022-12-19T17:58:57.476Z,101081.37
2022-12-19T18:01:25.529Z,101086.66
2022-12-19T18:03:54.269Z,101085.27
2022-12-19T18:06:22.251Z,101078.83
2022-12-19T18:08:50.012Z,101076.48
2022-12-19T18:11:25.919Z,101073.23
2022-12-19T18:13:53.781Z,101070.73
2022-12-19T18:16:28.141Z,101080.14
2022-12-19T18:18:56.920Z,101075.92
2022-12-19T18:21:24.819Z,101073.31
2022-12-19T18:23:52.745Z,101074.08
2022-12-19T18:26:20.565Z,101075.55
2022-12-19T18:28:48.868Z,101068.13
2022-12-19T18:31:26.535Z,101064.95
2022-12-19T18:33:55.170Z,101070.43
2022-12-19T18:36:26.355Z,101060.82
2022-12-19T18:38:55.598Z,101063.36
2022-12-19T18:41:23.825Z,101058.51
2022-12-19T18:43:51.718Z,101057.06
2022-12-19T18:46:26.561Z,101054.15
2022-12-19T18:48:55.527Z,101053.73
2022-12-19T18:51:23.646Z,101057.05
2022-12-19T18:53:51.713Z,101056.55
2022-12-19T18:56:19.807Z,101050.02
2022-12-19T18:58:48.566Z,101049.14
2022-12-19T19:01:18.474Z,101050.31
2022-12-19T19:03:57.363Z,101048.67
2022-12-19T19:06:27.790Z,101048.38
2022-12-19T19:09:00.319Z,101041.04
2022-12-19T19:11:54.201Z,101031.13
2022-12-19T19:14:22.376Z,101034.84
2022-12-19T19:16:50.187Z,101033.31
2022-12-19T19:19:18.705Z,101028.34
2022-12-19T19:21:46.575Z,101035.79
2022-12-19T19:24:17.523Z,101035.51
2022-12-19T19:26:45.297Z,101044.45
2022-12-19T19:29:19.179Z,101041.56
2022-12-19T19:31:48.925Z,101045.70
2022-12-19T19:34:28.764Z,101041.31
2022-12-19T19:36:58.451Z,101044.98
2022-12-19T19:39:27.804Z,101047.10
2022-12-19T19:41:56.385Z,101037.19
2022-12-19T19:44:24.523Z,101033.23
2022-12-19T19:46:52.546Z,101025.64
2022-12-19T19:49:21.234Z,101027.80
2022-12-19T19:51:48.969Z,101025.44
2022-12-19T19:54:16.975Z,101025.15
2022-12-19T19:56:44.729Z,101026.52
2022-12-19T19:59:12.514Z,101025.16
2022-12-19T20:01:40.365Z,101022.13
2022-12-19T20:04:08.443Z,101025.75
2022-12-19T20:06:36.271Z,101019.41
2022-12-19T20:09:04.552Z,101021.69
2022-12-19T20:11:32.584Z,101020.98
2022-12-19T20:14:00.373Z,101021.10
2022-12-19T20:16:30.283Z,101020.80
2022-12-19T20:18:58.149Z,101015.79
2022-12-19T20:21:25.980Z,101018.83
2022-12-19T20:23:53.790Z,101017.55
2022-12-19T20:26:21.536Z,101014.39
2022-12-19T20:28:50.616Z,101013.04
2022-12-19T20:31:20.349Z,101008.17
2022-12-19T20:33:48.901Z,101011.81
2022-12-19T20:36:17.131Z,101012.02
2022-12-19T20:38:45.373Z,101011.77
2022-12-19T20:41:13.601Z,101014.38
2022-12-19T20:43:41.559Z,101010.27
2022-12-19T20:46:13.264Z,101015.20
2022-12-19T20:48:42.046Z,101010.01
2022-12-19T20:51:10.186Z,101004.06
2022-12-19T20:53:39.494Z,101010.09
2022-12-19T20:56:09.257Z,101010.04
2022-12-19T20:58:37.843Z,101001.52
2022-12-19T21:01:11.119Z,101001.05
2022-12-19T21:03:40.048Z,101000.98
2022-12-19T21:06:10.336Z,100993.63
2022-12-19T21:08:38.798Z,100999.14
2022-12-19T21:11:08.436Z,100997.10
2022-12-19T21:13:38.032Z,100996.45
2022-12-19T21:16:08.891Z,100995.05
2022-12-19T21:18:38.550Z,100988.24
2022-12-19T21:21:08.135Z,100987.16
2022-12-19T21:23:36.008Z,100980.19
2022-12-19T21:26:04.667Z,100981.52
2022-12-19T21:28:32.857Z,100984.13
2022-12-19T21:31:20.276Z,100986.63
2022-12-19T21:33:48.907Z,100985.58
2022-12-19T21:36:19.982Z,100990.23
2022-12-19T21:38:49.964Z,100993.83
2022-12-19T21:41:21.413Z,100996.48
2022-12-19T21:43:53.370Z,101005.56
2022-12-19T21:46:27.084Z,101002.95
2022-12-19T21:48:56.733Z,100996.44
2022-12-19T21:51:28.556Z,100992.35
2022-12-19T21:54:00.418Z,100995.54
2022-12-19T21:56:34.451Z,100992.73
2022-12-19T21:59:06.108Z,100982.61
2022-12-19T22:01:34.309Z,100978.50
2022-12-19T22:04:06.360Z,100973.26
2022-12-19T22:06:37.184Z,100972.75
2022-12-19T22:09:07.295Z,100972.73
2022-12-19T22:11:36.047Z,100970.93
2022-12-19T22:14:05.454Z,100965.04
2022-12-19T22:16:34.198Z,100968.74
2022-12-19T22:19:02.526Z,100975.41
2022-12-19T22:21:31.047Z,100975.14
2022-12-19T22:24:00.293Z,100979.14
2022-12-19T22:26:29.904Z,100980.11
2022-12-19T22:28:57.997Z,100975.69
2022-12-19T22:31:27.993Z,100970.92
2022-12-19T22:33:58.937Z,100965.08
2022-12-19T22:36:29.145Z,100965.95
2022-12-19T22:38:57.929Z,100970.55
2022-12-19T22:41:26.486Z,100970.80
2022-12-19T22:43:55.158Z,100966.04
2022-12-19T22:46:28.257Z,100965.83
2022-12-19T22:49:01.476Z,100957.86
2022-12-19T22:51:30.443Z,100945.35
2022-12-19T22:53:59.447Z,100917.69
2022-12-19T22:56:28.875Z,100892.91
2022-12-19T22:59:00.185Z,100910.19
2022-12-19T23:01:31.112Z,100919.05
2022-12-19T23:04:00.401Z,100918.06
2022-12-19T23:06:29.576Z,100925.50
2022-12-19T23:08:57.819Z,100931.16
2022-12-19T23:11:28.895Z,100928.59
2022-12-19T23:13:56.680Z,100921.70
2022-12-19T23:16:24.854Z,100919.96
2022-12-19T23:18:52.745Z,100930.02
2022-12-19T23:21:22.705Z,100942.84
2022-12-19T23:23:52.314Z,100942.20
2022-12-19T23:26:27.866Z,100937.77
2022-12-19T23:28:58.114Z,100926.33
2022-12-19T23:31:27.265Z,100935.67
2022-12-19T23:33:55.791Z,100933.63
2022-12-19T23:37:00.413Z,100932.38
2022-12-19T23:39:13.061Z,100916.34
2022-12-19T23:41:40.938Z,100926.89
2022-12-19T23:44:10.095Z,100927.75
2022-12-19T23:46:38.177Z,100916.31
2022-12-19T23:49:06.414Z,100901.22
2022-12-19T23:51:34.103Z,100907.44
2022-12-19T23:54:01.850Z,100909.29
2022-12-19T23:56:31.483Z,100901.92
2022-12-19T23:58:59.569Z,100901.41
